sensor_id;sensor_type;location;lat;lon;timestamp;temperature;humidity
15937;DHT22;9163;48.818;8.976;2023-03-01T00:00:08;-2.00;99.90
15937;DHT22;9163;48.818;8.976;2023-03-01T00:02:35;-2.00;99.90
15937;DHT22;9163;48.818;8.976;2023-03-01T00:05:08;-2.10;99.90
15937;DHT22;9163;48.818;8.976;2023-03-01T00:07:35;-2.10;99.90
15937;DHT22;9163;48.818;8.976;2023-03-01T00:10:02;-2.10;99.90
15937;DHT22;9163;48.818;8.976;2023-03-01T00:12:31;-2.20;99.90
15937;DHT22;9163;48.818;8.976;2023-03-01T00:14:58;-2.10;99.90
15937;DHT22;9163;48.818;8.976;2023-03-01T00:17:27;-2.10;99.90
15937;DHT22;9163;48.818;8.976;2023-03-01T00:19:54;-2.10;99.90
15937;DHT22;9163;48.818;8.976;2023-03-01T00:22:23;-2.20;99.90
15937;DHT22;9163;48.818;8.976;2023-03-01T00:24:50;-2.20;99.90
15937;DHT22;9163;48.818;8.976;2023-03-01T00:27:18;-2.30;99.90
15937;DHT22;9163;48.818;8.976;2023-03-01T00:29:45;-2.30;99.90
15937;DHT22;9163;48.818;8.976;2023-03-01T00:32:13;-2.30;99.90
15937;DHT22;9163;48.818;8.976;2023-03-01T00:34:40;-2.30;99.90
15937;DHT22;9163;48.818;8.976;2023-03-01T00:37:07;-2.40;99.90
15937;DHT22;9163;48.818;8.976;2023-03-01T00:39:39;-2.40;99.90
15937;DHT22;9163;48.818;8.976;2023-03-01T00:42:08;-2.40;99.90
15937;DHT22;9163;48.818;8.976;2023-03-01T00:44:35;-2.40;99.90
15937;DHT22;9163;48.818;8.976;2023-03-01T00:47:02;-2.50;99.90
15937;DHT22;9163;48.818;8.976;2023-03-01T00:49:30;-2.50;99.90
15937;DHT22;9163;48.818;8.976;2023-03-01T00:51:57;-2.50;99.90
15937;DHT22;9163;48.818;8.976;2023-03-01T00:54:27;-2.40;99.90
15937;DHT22;9163;48.818;8.976;2023-03-01T00:56:56;-2.50;99.90
15937;DHT22;9163;48.818;8.976;2023-03-01T00:59:23;-2.50;99.90
15937;DHT22;9163;48.818;8.976;2023-03-01T01:01:50;-2.50;99.90
15937;DHT22;9163;48.818;8.976;2023-03-01T01:04:18;-2.50;99.90
15937;DHT22;9163;48.818;8.976;2023-03-01T01:06:46;-2.50;99.90
15937;DHT22;9163;48.818;8.976;2023-03-01T01:09:15;-2.60;99.90
15937;DHT22;9163;48.818;8.976;2023-03-01T01:11:44;-2.60;99.90
15937;DHT22;9163;48.818;8.976;2023-03-01T01:14:13;-2.70;99.90
15937;DHT22;9163;48.818;8.976;2023-03-01T01:16:42;-2.70;99.90
15937;DHT22;9163;48.818;8.976;2023-03-01T01:19:10;-2.70;99.90
15937;DHT22;9163;48.818;8.976;2023-03-01T01:21:38;-2.70;99.90
15937;DHT22;9163;48.818;8.976;2023-03-01T01:24:06;-2.70;99.90
15937;DHT22;9163;48.818;8.976;2023-03-01T01:26:34;-2.70;99.90
15937;DHT22;9163;48.818;8.976;2023-03-01T01:29:03;-2.70;99.90
15937;DHT22;9163;48.818;8.976;2023-03-01T01:31:33;-2.70;99.90
15937;DHT22;9163;48.818;8.976;2023-03-01T01:34:03;-2.80;99.90
15937;DHT22;9163;48.818;8.976;2023-03-01T01:36:30;-2.80;99.90
15937;DHT22;9163;48.818;8.976;2023-03-01T01:38:59;-2.80;99.90
15937;DHT22;9163;48.818;8.976;2023-03-01T01:41:28;-2.80;99.90
15937;DHT22;9163;48.818;8.976;2023-03-01T01:44:24;-2.90;99.90
15937;DHT22;9163;48.818;8.976;2023-03-01T01:46:56;-2.90;99.90
15937;DHT22;9163;48.818;8.976;2023-03-01T01:49:29;-2.90;99.90
15937;DHT22;9163;48.818;8.976;2023-03-01T01:52:04;-2.90;99.90
15937;DHT22;9163;48.818;8.976;2023-03-01T01:54:39;-3.00;99.90
15937;DHT22;9163;48.818;8.976;2023-03-01T01:57:10;-2.90;99.90
15937;DHT22;9163;48.818;8.976;2023-03-01T01:59:41;-2.90;99.90
15937;DHT22;9163;48.818;8.976;2023-03-01T02:02:11;-2.90;99.90
15937;DHT22;9163;48.818;8.976;2023-03-01T02:04:39;-3.00;99.90
15937;DHT22;9163;48.818;8.976;2023-03-01T02:07:10;-3.00;99.90
15937;DHT22;9163;48.818;8.976;2023-03-01T02:09:41;-3.00;99.90
15937;DHT22;9163;48.818;8.976;2023-03-01T02:12:09;-3.00;99.90
15937;DHT22;9163;48.818;8.976;2023-03-01T02:14:36;-3.00;99.90
15937;DHT22;9163;48.818;8.976;2023-03-01T02:17:03;-3.00;99.90
15937;DHT22;9163;48.818;8.976;2023-03-01T02:19:41;-3.00;99.90
15937;DHT22;9163;48.818;8.976;2023-03-01T02:22:20;-3.00;99.90
15937;DHT22;9163;48.818;8.976;2023-03-01T02:24:57;-3.10;99.90
15937;DHT22;9163;48.818;8.976;2023-03-01T02:27:37;-3.10;99.90
15937;DHT22;9163;48.818;8.976;2023-03-01T02:30:07;-3.10;99.90
15937;DHT22;9163;48.818;8.976;2023-03-01T02:32:39;-3.10;99.90
15937;DHT22;9163;48.818;8.976;2023-03-01T02:35:09;-3.10;99.90
15937;DHT22;9163;48.818;8.976;2023-03-01T02:37:38;-3.10;99.90
15937;DHT22;9163;48.818;8.976;2023-03-01T02:40:08;-3.00;99.90
15937;DHT22;9163;48.818;8.976;2023-03-01T02:42:43;-2.90;99.90
15937;DHT22;9163;48.818;8.976;2023-03-01T02:45:14;-2.90;99.90
15937;DHT22;9163;48.818;8.976;2023-03-01T02:47:41;-2.80;99.90
15937;DHT22;9163;48.818;8.976;2023-03-01T02:50:18;-2.80;99.90
15937;DHT22;9163;48.818;8.976;2023-03-01T02:52:57;-2.70;99.90
15937;DHT22;9163;48.818;8.976;2023-03-01T02:55:27;-2.70;99.90
15937;DHT22;9163;48.818;8.976;2023-03-01T02:57:55;-2.60;99.90
15937;DHT22;9163;48.818;8.976;2023-03-01T03:00:28;-2.50;99.90
15937;DHT22;9163;48.818;8.976;2023-03-01T03:02:59;-2.50;99.90
15937;DHT22;9163;48.818;8.976;2023-03-01T03:05:30;-2.40;99.90
15937;DHT22;9163;48.818;8.976;2023-03-01T03:07:59;-2.30;99.90
15937;DHT22;9163;48.818;8.976;2023-03-01T03:10:28;-2.30;99.90
15937;DHT22;9163;48.818;8.976;2023-03-01T03:12:57;-2.30;99.90
15937;DHT22;9163;48.818;8.976;2023-03-01T03:15:27;-2.20;99.90
15937;DHT22;9163;48.818;8.976;2023-03-01T03:17:55;-2.20;99.90
15937;DHT22;9163;48.818;8.976;2023-03-01T03:20:24;-2.20;99.90
15937;DHT22;9163;48.818;8.976;2023-03-01T03:22:53;-2.10;99.90
15937;DHT22;9163;48.818;8.976;2023-03-01T03:25:22;-2.10;99.90
15937;DHT22;9163;48.818;8.976;2023-03-01T03:27:51;-2.10;99.90
15937;DHT22;9163;48.818;8.976;2023-03-01T03:30:23;-2.00;99.90
15937;DHT22;9163;48.818;8.976;2023-03-01T03:32:53;-2.00;99.90
15937;DHT22;9163;48.818;8.976;2023-03-01T03:35:22;-2.00;99.90
15937;DHT22;9163;48.818;8.976;2023-03-01T03:37:51;-2.00;99.90
15937;DHT22;9163;48.818;8.976;2023-03-01T03:40:35;-1.90;99.90
15937;DHT22;9163;48.818;8.976;2023-03-01T03:43:03;-1.90;99.90
15937;DHT22;9163;48.818;8.976;2023-03-01T03:45:31;-1.90;99.90
15937;DHT22;9163;48.818;8.976;2023-03-01T03:48:01;-1.90;99.90
15937;DHT22;9163;48.818;8.976;2023-03-01T03:50:29;-1.90;99.90
15937;DHT22;9163;48.818;8.976;2023-03-01T03:52:56;-1.90;99.90
15937;DHT22;9163;48.818;8.976;2023-03-01T03:55:23;-1.90;99.90
15937;DHT22;9163;48.818;8.976;2023-03-01T03:57:57;-1.90;99.90
15937;DHT22;9163;48.818;8.976;2023-03-01T04:00:28;-1.90;99.90
15937;DHT22;9163;48.818;8.976;2023-03-01T04:02:55;-1.90;99.90
15937;DHT22;9163;48.818;8.976;2023-03-01T04:05:24;-1.90;99.90
15937;DHT22;9163;48.818;8.976;2023-03-01T04:07:52;-1.90;99.90
15937;DHT22;9163;48.818;8.976;2023-03-01T04:10:34;-1.90;99.90
15937;DHT22;9163;48.818;8.976;2023-03-01T04:13:02;-1.90;99.90
15937;DHT22;9163;48.818;8.976;2023-03-01T04:15:30;-1.90;99.90
15937;DHT22;9163;48.818;8.976;2023-03-01T04:17:59;-1.80;99.90
15937;DHT22;9163;48.818;8.976;2023-03-01T04:20:29;-1.80;99.90
15937;DHT22;9163;48.818;8.976;2023-03-01T04:22:58;-1.80;99.90
15937;DHT22;9163;48.818;8.976;2023-03-01T04:25:37;-1.80;99.90
15937;DHT22;9163;48.818;8.976;2023-03-01T04:28:05;-1.80;99.90
15937;DHT22;9163;48.818;8.976;2023-03-01T04:30:32;-1.70;99.90
15937;DHT22;9163;48.818;8.976;2023-03-01T04:33:03;-1.70;99.90
15937;DHT22;9163;48.818;8.976;2023-03-01T04:35:32;-1.80;99.90
15937;DHT22;9163;48.818;8.976;2023-03-01T04:38:00;-1.70;99.90
15937;DHT22;9163;48.818;8.976;2023-03-01T04:40:27;-1.70;99.90
15937;DHT22;9163;48.818;8.976;2023-03-01T04:42:54;-1.70;99.90
15937;DHT22;9163;48.818;8.976;2023-03-01T04:45:22;-1.80;99.90
15937;DHT22;9163;48.818;8.976;2023-03-01T04:47:50;-1.70;99.90
15937;DHT22;9163;48.818;8.976;2023-03-01T04:50:18;-1.70;99.90
15937;DHT22;9163;48.818;8.976;2023-03-01T04:52:49;-1.70;99.90
15937;DHT22;9163;48.818;8.976;2023-03-01T04:55:16;-1.70;99.90
15937;DHT22;9163;48.818;8.976;2023-03-01T04:57:44;-1.70;99.90
15937;DHT22;9163;48.818;8.976;2023-03-01T05:00:13;-1.70;99.90
15937;DHT22;9163;48.818;8.976;2023-03-01T05:02:48;-1.70;99.90
15937;DHT22;9163;48.818;8.976;2023-03-01T05:05:20;-1.70;99.90
15937;DHT22;9163;48.818;8.976;2023-03-01T05:07:54;-1.70;99.90
15937;DHT22;9163;48.818;8.976;2023-03-01T05:10:23;-1.60;99.90
15937;DHT22;9163;48.818;8.976;2023-03-01T05:12:50;-1.60;99.90
15937;DHT22;9163;48.818;8.976;2023-03-01T05:15:19;-1.70;99.90
15937;DHT22;9163;48.818;8.976;2023-03-01T05:17:48;-1.60;99.90
15937;DHT22;9163;48.818;8.976;2023-03-01T05:20:15;-1.60;99.90
15937;DHT22;9163;48.818;8.976;2023-03-01T05:22:42;-1.60;99.90
15937;DHT22;9163;48.818;8.976;2023-03-01T05:25:11;-1.60;99.90
15937;DHT22;9163;48.818;8.976;2023-03-01T05:27:39;-1.60;99.90
15937;DHT22;9163;48.818;8.976;2023-03-01T05:30:08;-1.60;99.90
15937;DHT22;9163;48.818;8.976;2023-03-01T05:32:41;-1.60;99.90
15937;DHT22;9163;48.818;8.976;2023-03-01T05:35:11;-1.60;99.90
15937;DHT22;9163;48.818;8.976;2023-03-01T05:37:41;-1.60;99.90
15937;DHT22;9163;48.818;8.976;2023-03-01T05:40:14;-1.60;99.90
15937;DHT22;9163;48.818;8.976;2023-03-01T05:42:43;-1.60;99.90
15937;DHT22;9163;48.818;8.976;2023-03-01T05:45:12;-1.60;99.90
15937;DHT22;9163;48.818;8.976;2023-03-01T05:47:39;-1.60;99.90
15937;DHT22;9163;48.818;8.976;2023-03-01T05:50:12;-1.60;99.90
15937;DHT22;9163;48.818;8.976;2023-03-01T05:52:39;-1.70;99.90
15937;DHT22;9163;48.818;8.976;2023-03-01T05:55:07;-1.60;99.90
15937;DHT22;9163;48.818;8.976;2023-03-01T05:57:37;-1.60;99.90
15937;DHT22;9163;48.818;8.976;2023-03-01T06:00:07;-1.60;99.90
15937;DHT22;9163;48.818;8.976;2023-03-01T06:02:36;-1.70;99.90
15937;DHT22;9163;48.818;8.976;2023-03-01T06:05:04;-1.60;99.90
15937;DHT22;9163;48.818;8.976;2023-03-01T06:07:32;-1.60;99.90
15937;DHT22;9163;48.818;8.976;2023-03-01T06:09:59;-1.60;99.90
15937;DHT22;9163;48.818;8.976;2023-03-01T06:12:30;-1.60;99.90
15937;DHT22;9163;48.818;8.976;2023-03-01T06:14:59;-1.60;99.90
15937;DHT22;9163;48.818;8.976;2023-03-01T06:17:28;-1.70;99.90
15937;DHT22;9163;48.818;8.976;2023-03-01T06:19:55;-1.70;99.90
15937;DHT22;9163;48.818;8.976;2023-03-01T06:22:22;-1.70;99.90
15937;DHT22;9163;48.818;8.976;2023-03-01T06:24:50;-1.70;99.90
15937;DHT22;9163;48.818;8.976;2023-03-01T06:27:17;-1.70;99.90
15937;DHT22;9163;48.818;8.976;2023-03-01T06:29:44;-1.70;99.90
15937;DHT22;9163;48.818;8.976;2023-03-01T06:32:12;-1.70;99.90
15937;DHT22;9163;48.818;8.976;2023-03-01T06:34:40;-1.70;99.90
15937;DHT22;9163;48.818;8.976;2023-03-01T06:37:07;-1.70;99.90
15937;DHT22;9163;48.818;8.976;2023-03-01T06:39:35;-1.60;99.90
15937;DHT22;9163;48.818;8.976;2023-03-01T06:42:02;-1.60;99.90
15937;DHT22;9163;48.818;8.976;2023-03-01T06:44:29;-1.60;99.90
15937;DHT22;9163;48.818;8.976;2023-03-01T06:46:57;-1.60;99.90
15937;DHT22;9163;48.818;8.976;2023-03-01T06:49:26;-1.60;99.90
15937;DHT22;9163;48.818;8.976;2023-03-01T06:51:53;-1.60;99.90
15937;DHT22;9163;48.818;8.976;2023-03-01T06:54:21;-1.50;99.90
15937;DHT22;9163;48.818;8.976;2023-03-01T06:56:49;-1.60;99.90
15937;DHT22;9163;48.818;8.976;2023-03-01T06:59:17;-1.50;99.90
15937;DHT22;9163;48.818;8.976;2023-03-01T07:01:44;-1.50;99.90
15937;DHT22;9163;48.818;8.976;2023-03-01T07:04:13;-1.50;99.90
15937;DHT22;9163;48.818;8.976;2023-03-01T07:06:42;-1.60;99.90
15937;DHT22;9163;48.818;8.976;2023-03-01T07:09:09;-1.60;99.90
15937;DHT22;9163;48.818;8.976;2023-03-01T07:11:36;-1.50;99.90
15937;DHT22;9163;48.818;8.976;2023-03-01T07:14:03;-1.30;99.90
15937;DHT22;9163;48.818;8.976;2023-03-01T07:16:31;-1.20;99.90
15937;DHT22;9163;48.818;8.976;2023-03-01T07:18:59;-1.00;99.90
15937;DHT22;9163;48.818;8.976;2023-03-01T07:21:26;-0.80;99.90
15937;DHT22;9163;48.818;8.976;2023-03-01T07:23:54;-0.70;99.90
15937;DHT22;9163;48.818;8.976;2023-03-01T07:26:21;-0.40;99.90
15937;DHT22;9163;48.818;8.976;2023-03-01T07:28:49;-0.30;99.90
15937;DHT22;9163;48.818;8.976;2023-03-01T07:31:16;-0.10;99.90
15937;DHT22;9163;48.818;8.976;2023-03-01T07:33:43;0.10;99.90
15937;DHT22;9163;48.818;8.976;2023-03-01T07:36:10;0.40;99.90
15937;DHT22;9163;48.818;8.976;2023-03-01T07:38:37;0.50;99.90
15937;DHT22;9163;48.818;8.976;2023-03-01T07:41:06;0.70;99.90
15937;DHT22;9163;48.818;8.976;2023-03-01T07:43:33;0.80;99.90
15937;DHT22;9163;48.818;8.976;2023-03-01T07:46:01;0.90;99.90
15937;DHT22;9163;48.818;8.976;2023-03-01T07:48:29;1.00;99.90
15937;DHT22;9163;48.818;8.976;2023-03-01T07:50:58;1.10;99.90
15937;DHT22;9163;48.818;8.976;2023-03-01T07:53:25;1.30;99.90
15937;DHT22;9163;48.818;8.976;2023-03-01T07:56:04;1.60;98.70
15937;DHT22;9163;48.818;8.976;2023-03-01T07:58:34;1.90;90.50
15937;DHT22;9163;48.818;8.976;2023-03-01T08:01:02;2.20;78.00
15937;DHT22;9163;48.818;8.976;2023-03-01T08:03:29;2.40;65.40
15937;DHT22;9163;48.818;8.976;2023-03-01T08:05:59;2.60;49.20
15937;DHT22;9163;48.818;8.976;2023-03-01T08:08:26;2.70;36.50
15937;DHT22;9163;48.818;8.976;2023-03-01T08:10:56;2.80;31.90
15937;DHT22;9163;48.818;8.976;2023-03-01T08:13:24;3.00;25.30
15937;DHT22;9163;48.818;8.976;2023-03-01T08:15:52;2.90;21.30
15937;DHT22;9163;48.818;8.976;2023-03-01T08:18:20;3.10;18.60
15937;DHT22;9163;48.818;8.976;2023-03-01T08:20:50;3.50;22.70
15937;DHT22;9163;48.818;8.976;2023-03-01T08:23:17;3.80;1.00
15937;DHT22;9163;48.818;8.976;2023-03-01T08:25:45;3.90;1.00
15937;DHT22;9163;48.818;8.976;2023-03-01T08:28:12;4.10;1.00
15937;DHT22;9163;48.818;8.976;2023-03-01T08:30:39;4.20;1.00
15937;DHT22;9163;48.818;8.976;2023-03-01T08:33:07;4.40;1.00
15937;DHT22;9163;48.818;8.976;2023-03-01T08:35:35;4.60;1.00
15937;DHT22;9163;48.818;8.976;2023-03-01T08:38:02;5.00;1.00
15937;DHT22;9163;48.818;8.976;2023-03-01T08:40:29;5.00;1.00
15937;DHT22;9163;48.818;8.976;2023-03-01T08:42:58;5.20;1.00
15937;DHT22;9163;48.818;8.976;2023-03-01T08:45:25;5.40;1.00
15937;DHT22;9163;48.818;8.976;2023-03-01T08:47:52;5.40;1.00
15937;DHT22;9163;48.818;8.976;2023-03-01T08:50:21;5.60;1.00
15937;DHT22;9163;48.818;8.976;2023-03-01T08:52:50;5.90;1.00
15937;DHT22;9163;48.818;8.976;2023-03-01T08:55:17;5.90;1.00
15937;DHT22;9163;48.818;8.976;2023-03-01T08:57:44;6.20;1.00
15937;DHT22;9163;48.818;8.976;2023-03-01T09:00:12;6.30;1.00
15937;DHT22;9163;48.818;8.976;2023-03-01T09:02:41;6.40;1.00
15937;DHT22;9163;48.818;8.976;2023-03-01T09:05:09;6.70;1.00
15937;DHT22;9163;48.818;8.976;2023-03-01T09:07:37;6.90;1.00
15937;DHT22;9163;48.818;8.976;2023-03-01T09:10:05;7.00;1.00
15937;DHT22;9163;48.818;8.976;2023-03-01T09:12:32;7.10;1.00
15937;DHT22;9163;48.818;8.976;2023-03-01T09:15:00;7.40;1.00
15937;DHT22;9163;48.818;8.976;2023-03-01T09:17:27;7.60;3.10
15937;DHT22;9163;48.818;8.976;2023-03-01T09:19:54;7.80;8.60
15937;DHT22;9163;48.818;8.976;2023-03-01T09:22:22;7.90;15.30
15937;DHT22;9163;48.818;8.976;2023-03-01T09:24:50;8.00;4.50
15937;DHT22;9163;48.818;8.976;2023-03-01T09:27:17;8.10;4.40
15937;DHT22;9163;48.818;8.976;2023-03-01T09:29:46;8.30;30.60
15937;DHT22;9163;48.818;8.976;2023-03-01T09:32:16;8.50;22.90
15937;DHT22;9163;48.818;8.976;2023-03-01T09:34:43;8.90;36.60
15937;DHT22;9163;48.818;8.976;2023-03-01T09:37:31;9.10;25.40
15937;DHT22;9163;48.818;8.976;2023-03-01T09:40:00;9.30;39.20
15937;DHT22;9163;48.818;8.976;2023-03-01T09:42:28;9.40;40.00
15937;DHT22;9163;48.818;8.976;2023-03-01T09:45:00;9.60;38.80
15937;DHT22;9163;48.818;8.976;2023-03-01T09:47:30;9.60;54.00
15937;DHT22;9163;48.818;8.976;2023-03-01T09:50:03;8.80;58.60
15937;DHT22;9163;48.818;8.976;2023-03-01T09:52:36;9.10;38.40
15937;DHT22;9163;48.818;8.976;2023-03-01T09:55:11;9.30;51.70
15937;DHT22;9163;48.818;8.976;2023-03-01T09:57:46;9.70;45.00
15937;DHT22;9163;48.818;8.976;2023-03-01T10:00:26;10.10;47.20
15937;DHT22;9163;48.818;8.976;2023-03-01T10:03:12;10.50;55.00
15937;DHT22;9163;48.818;8.976;2023-03-01T10:05:54;11.10;67.90
15937;DHT22;9163;48.818;8.976;2023-03-01T10:08:34;11.30;68.60
15937;DHT22;9163;48.818;8.976;2023-03-01T10:11:22;11.90;88.30
15937;DHT22;9163;48.818;8.976;2023-03-01T10:14:03;12.00;94.40
15937;DHT22;9163;48.818;8.976;2023-03-01T10:16:41;12.60;94.10
15937;DHT22;9163;48.818;8.976;2023-03-01T10:19:15;13.00;96.00
15937;DHT22;9163;48.818;8.976;2023-03-01T10:21:45;13.20;95.70
15937;DHT22;9163;48.818;8.976;2023-03-01T10:24:15;13.70;96.40
15937;DHT22;9163;48.818;8.976;2023-03-01T10:26:54;14.40;93.00
15937;DHT22;9163;48.818;8.976;2023-03-01T10:29:25;15.70;91.90
15937;DHT22;9163;48.818;8.976;2023-03-01T10:31:55;16.40;89.10
15937;DHT22;9163;48.818;8.976;2023-03-01T10:34:28;17.10;82.60
15937;DHT22;9163;48.818;8.976;2023-03-01T10:36:56;17.60;80.50
15937;DHT22;9163;48.818;8.976;2023-03-01T10:39:25;17.90;73.70
15937;DHT22;9163;48.818;8.976;2023-03-01T10:41:59;18.30;72.60
15937;DHT22;9163;48.818;8.976;2023-03-01T10:44:44;18.40;66.90
15937;DHT22;9163;48.818;8.976;2023-03-01T10:47:18;17.80;68.70
15937;DHT22;9163;48.818;8.976;2023-03-01T10:49:53;18.40;65.30
15937;DHT22;9163;48.818;8.976;2023-03-01T10:52:21;18.80;64.60
15937;DHT22;9163;48.818;8.976;2023-03-01T10:54:55;19.10;63.50
15937;DHT22;9163;48.818;8.976;2023-03-01T10:57:39;20.20;59.90
15937;DHT22;9163;48.818;8.976;2023-03-01T11:00:19;20.70;55.70
15937;DHT22;9163;48.818;8.976;2023-03-01T11:02:50;20.80;54.40
15937;DHT22;9163;48.818;8.976;2023-03-01T11:05:22;21.40;53.40
15937;DHT22;9163;48.818;8.976;2023-03-01T11:07:52;21.80;51.10
15937;DHT22;9163;48.818;8.976;2023-03-01T11:10:22;22.00;51.00
15937;DHT22;9163;48.818;8.976;2023-03-01T11:12:52;21.60;45.30
15937;DHT22;9163;48.818;8.976;2023-03-01T11:15:24;21.80;47.10
15937;DHT22;9163;48.818;8.976;2023-03-01T11:17:53;22.70;46.60
15937;DHT22;9163;48.818;8.976;2023-03-01T11:20:27;22.70;44.10
15937;DHT22;9163;48.818;8.976;2023-03-01T11:22:59;23.50;43.80
15937;DHT22;9163;48.818;8.976;2023-03-01T11:25:31;23.50;43.10
15937;DHT22;9163;48.818;8.976;2023-03-01T11:28:04;23.70;43.10
15937;DHT22;9163;48.818;8.976;2023-03-01T11:30:35;24.30;41.90
15937;DHT22;9163;48.818;8.976;2023-03-01T11:33:12;24.20;39.80
15937;DHT22;9163;48.818;8.976;2023-03-01T11:35:44;23.90;39.30
15937;DHT22;9163;48.818;8.976;2023-03-01T11:38:21;24.60;39.60
15937;DHT22;9163;48.818;8.976;2023-03-01T11:40:53;24.90;37.80
15937;DHT22;9163;48.818;8.976;2023-03-01T11:43:32;25.30;38.90
15937;DHT22;9163;48.818;8.976;2023-03-01T11:46:29;25.20;37.90
15937;DHT22;9163;48.818;8.976;2023-03-01T11:49:10;24.90;37.50
15937;DHT22;9163;48.818;8.976;2023-03-01T11:51:46;25.60;36.90
15937;DHT22;9163;48.818;8.976;2023-03-01T11:54:31;26.40;35.30
15937;DHT22;9163;48.818;8.976;2023-03-01T11:57:11;26.10;35.90
15937;DHT22;9163;48.818;8.976;2023-03-01T12:00:06;26.00;35.30
15937;DHT22;9163;48.818;8.976;2023-03-01T12:02:46;25.70;34.00
15937;DHT22;9163;48.818;8.976;2023-03-01T12:05:29;25.80;33.40
15937;DHT22;9163;48.818;8.976;2023-03-01T12:08:07;26.30;33.60
15937;DHT22;9163;48.818;8.976;2023-03-01T12:10:43;26.30;32.90
15937;DHT22;9163;48.818;8.976;2023-03-01T12:13:40;26.20;31.60
15937;DHT22;9163;48.818;8.976;2023-03-01T12:16:23;25.70;32.40
15937;DHT22;9163;48.818;8.976;2023-03-01T12:19:05;26.60;31.20
15937;DHT22;9163;48.818;8.976;2023-03-01T12:21:59;27.00;30.30
15937;DHT22;9163;48.818;8.976;2023-03-01T12:24:53;26.50;31.10
15937;DHT22;9163;48.818;8.976;2023-03-01T12:27:44;26.40;29.60
15937;DHT22;9163;48.818;8.976;2023-03-01T12:30:27;26.60;29.60
15937;DHT22;9163;48.818;8.976;2023-03-01T12:33:12;27.10;29.70
15937;DHT22;9163;48.818;8.976;2023-03-01T12:39:13;27.00;28.40
15937;DHT22;9163;48.818;8.976;2023-03-01T12:41:47;27.80;28.60
15937;DHT22;9163;48.818;8.976;2023-03-01T12:44:31;27.10;27.10
15937;DHT22;9163;48.818;8.976;2023-03-01T12:47:08;27.30;28.40
15937;DHT22;9163;48.818;8.976;2023-03-01T12:49:41;27.50;25.90
15937;DHT22;9163;48.818;8.976;2023-03-01T12:52:14;26.70;25.50
15937;DHT22;9163;48.818;8.976;2023-03-01T12:54:44;26.80;25.50
15937;DHT22;9163;48.818;8.976;2023-03-01T12:57:17;27.50;23.90
15937;DHT22;9163;48.818;8.976;2023-03-01T12:59:51;27.00;15.50
15937;DHT22;9163;48.818;8.976;2023-03-01T13:02:24;27.10;1.00
15937;DHT22;9163;48.818;8.976;2023-03-01T13:05:10;27.80;1.00
15937;DHT22;9163;48.818;8.976;2023-03-01T13:07:48;28.20;1.00
15937;DHT22;9163;48.818;8.976;2023-03-01T13:10:23;27.30;1.00
15937;DHT22;9163;48.818;8.976;2023-03-01T13:13:03;27.80;1.00
15937;DHT22;9163;48.818;8.976;2023-03-01T13:15:32;28.00;1.00
15937;DHT22;9163;48.818;8.976;2023-03-01T13:18:02;27.90;1.00
15937;DHT22;9163;48.818;8.976;2023-03-01T13:20:34;27.90;1.00
15937;DHT22;9163;48.818;8.976;2023-03-01T13:23:23;28.00;1.00
15937;DHT22;9163;48.818;8.976;2023-03-01T13:26:06;27.10;1.00
15937;DHT22;9163;48.818;8.976;2023-03-01T13:28:52;27.60;1.00
15937;DHT22;9163;48.818;8.976;2023-03-01T13:34:57;28.30;1.00
15937;DHT22;9163;48.818;8.976;2023-03-01T13:37:29;27.00;1.00
15937;DHT22;9163;48.818;8.976;2023-03-01T13:39:59;26.70;1.00
15937;DHT22;9163;48.818;8.976;2023-03-01T13:42:40;26.30;1.00
15937;DHT22;9163;48.818;8.976;2023-03-01T13:45:20;26.50;1.00
15937;DHT22;9163;48.818;8.976;2023-03-01T13:47:52;26.60;1.00
15937;DHT22;9163;48.818;8.976;2023-03-01T13:50:23;26.30;1.00
15937;DHT22;9163;48.818;8.976;2023-03-01T13:52:55;26.50;1.00
15937;DHT22;9163;48.818;8.976;2023-03-01T13:55:32;27.10;1.00
15937;DHT22;9163;48.818;8.976;2023-03-01T13:58:05;26.70;1.00
15937;DHT22;9163;48.818;8.976;2023-03-01T14:00:41;27.00;1.00
15937;DHT22;9163;48.818;8.976;2023-03-01T14:03:11;25.80;1.00
15937;DHT22;9163;48.818;8.976;2023-03-01T14:05:41;26.10;1.00
15937;DHT22;9163;48.818;8.976;2023-03-01T14:08:21;26.10;1.00
15937;DHT22;9163;48.818;8.976;2023-03-01T14:10:56;26.40;1.00
15937;DHT22;9163;48.818;8.976;2023-03-01T14:13:32;26.10;1.00
15937;DHT22;9163;48.818;8.976;2023-03-01T14:16:17;26.40;1.00
15937;DHT22;9163;48.818;8.976;2023-03-01T14:18:52;25.40;1.00
15937;DHT22;9163;48.818;8.976;2023-03-01T14:21:23;25.50;1.00
15937;DHT22;9163;48.818;8.976;2023-03-01T14:23:52;26.70;1.00
15937;DHT22;9163;48.818;8.976;2023-03-01T14:26:21;26.80;1.00
15937;DHT22;9163;48.818;8.976;2023-03-01T14:28:49;25.90;1.00
15937;DHT22;9163;48.818;8.976;2023-03-01T14:31:36;25.50;1.00
15937;DHT22;9163;48.818;8.976;2023-03-01T14:34:03;24.30;1.00
15937;DHT22;9163;48.818;8.976;2023-03-01T14:36:33;24.50;1.00
15937;DHT22;9163;48.818;8.976;2023-03-01T14:39:16;24.70;1.00
15937;DHT22;9163;48.818;8.976;2023-03-01T14:41:44;24.10;1.00
15937;DHT22;9163;48.818;8.976;2023-03-01T14:44:16;24.10;1.00
15937;DHT22;9163;48.818;8.976;2023-03-01T14:46:46;24.40;1.00
15937;DHT22;9163;48.818;8.976;2023-03-01T14:49:16;24.90;1.00
15937;DHT22;9163;48.818;8.976;2023-03-01T14:51:51;25.50;1.00
15937;DHT22;9163;48.818;8.976;2023-03-01T14:54:25;25.50;1.00
15937;DHT22;9163;48.818;8.976;2023-03-01T14:56:57;25.30;1.00
15937;DHT22;9163;48.818;8.976;2023-03-01T14:59:25;25.40;1.00
15937;DHT22;9163;48.818;8.976;2023-03-01T15:01:55;25.40;1.00
15937;DHT22;9163;48.818;8.976;2023-03-01T15:04:23;24.90;1.00
15937;DHT22;9163;48.818;8.976;2023-03-01T15:06:52;24.90;1.00
15937;DHT22;9163;48.818;8.976;2023-03-01T15:09:22;24.80;1.00
15937;DHT22;9163;48.818;8.976;2023-03-01T15:11:49;24.70;1.00
15937;DHT22;9163;48.818;8.976;2023-03-01T15:14:39;24.80;1.00
15937;DHT22;9163;48.818;8.976;2023-03-01T15:17:21;24.10;1.00
15937;DHT22;9163;48.818;8.976;2023-03-01T15:19:50;23.60;1.00
15937;DHT22;9163;48.818;8.976;2023-03-01T15:22:18;21.90;1.00
15937;DHT22;9163;48.818;8.976;2023-03-01T15:24:50;21.50;1.00
15937;DHT22;9163;48.818;8.976;2023-03-01T15:27:18;21.10;1.00
15937;DHT22;9163;48.818;8.976;2023-03-01T15:29:49;21.60;1.00
15937;DHT22;9163;48.818;8.976;2023-03-01T15:32:28;21.60;1.00
15937;DHT22;9163;48.818;8.976;2023-03-01T15:34:56;20.90;1.00
15937;DHT22;9163;48.818;8.976;2023-03-01T15:37:40;20.10;1.00
15937;DHT22;9163;48.818;8.976;2023-03-01T15:40:23;19.20;1.00
15937;DHT22;9163;48.818;8.976;2023-03-01T15:42:57;18.20;1.00
15937;DHT22;9163;48.818;8.976;2023-03-01T15:45:27;17.50;1.00
15937;DHT22;9163;48.818;8.976;2023-03-01T15:47:55;16.50;1.00
15937;DHT22;9163;48.818;8.976;2023-03-01T15:50:26;15.90;1.00
15937;DHT22;9163;48.818;8.976;2023-03-01T15:52:54;15.60;1.00
15937;DHT22;9163;48.818;8.976;2023-03-01T15:55:24;15.20;1.00
15937;DHT22;9163;48.818;8.976;2023-03-01T15:57:59;14.60;1.00
15937;DHT22;9163;48.818;8.976;2023-03-01T16:00:27;13.80;1.00
15937;DHT22;9163;48.818;8.976;2023-03-01T16:02:56;13.20;1.00
15937;DHT22;9163;48.818;8.976;2023-03-01T16:05:25;12.60;1.00
15937;DHT22;9163;48.818;8.976;2023-03-01T16:07:53;12.30;1.00
15937;DHT22;9163;48.818;8.976;2023-03-01T16:10:20;11.90;1.00
15937;DHT22;9163;48.818;8.976;2023-03-01T16:12:49;11.20;1.00
15937;DHT22;9163;48.818;8.976;2023-03-01T16:15:20;10.80;1.00
15937;DHT22;9163;48.818;8.976;2023-03-01T16:17:48;10.60;1.00
15937;DHT22;9163;48.818;8.976;2023-03-01T16:20:16;10.40;1.00
15937;DHT22;9163;48.818;8.976;2023-03-01T16:22:44;10.00;1.00
15937;DHT22;9163;48.818;8.976;2023-03-01T16:25:12;9.90;1.00